• Join FlightAware (Why Join?)
  • Login
  • US Flag 
11:44PM EDT


 

Airport Tracker/Info


-or-


 

Live Flight TrackerFlight Track Log ✈ UAL653 ✈ 24-May-2013 ✈ KSFO - KLAX

Flight Track Log - Related Links

Times and Time Zones

All times are in EDT time to prevent confusion due to time zone crossing. See the UAL653 flight status page for this flight to view local times or setup timezone preferences in your user account.

Time Position Orientation Groundspeed Altitude Reporting Facility
EDT Latitude Longitude Course Direction KTS MPH feet Rate Location/Type
02:09PM 37.6333 -122.3667 136° Southeast 150 173 900  Level Northern Cal TRACON
02:10PM 37.6833 -122.3667 360° North 202 232 2,600 2,220 Climbing Northern Cal TRACON
02:11PM 37.7333 -122.4167 322° Northwest 268 308 5,400 2,640 Climbing Northern Cal TRACON
02:12PM 37.4878 -122.4622 218° Southwest  Level FlightAware Approximate
02:13PM 37.4356 -122.3735 113° Southeast  Level FlightAware Approximate
02:14PM 37.3872 -122.2725 130° Southeast  Level FlightAware Approximate
02:14PM 37.5608 -122.4336 184° South 317 365 11,800  Level Oakland Center
02:15PM 37.3192 -122.1897 136° Southeast  Level FlightAware Approximate
02:15PM 37.4781 -122.3519 142° Southeast 387 445 14,200  Level Oakland Center
02:16PM 37.4014 -122.2472 133° Southeast 406 467 16,700 2,100 Climbing Oakland Center
02:17PM 37.3189 -122.1367 133° Southeast 431 496 18,600 2,340 Climbing Oakland Center
02:18PM 37.2156 -121.9983 133° Southeast 452 520 21,500 2,280 Climbing Oakland Center
02:19PM 37.1256 -121.8811 134° Southeast 465 535 23,300 1,680 Climbing Oakland Center
02:20PM 37.0331 -121.7597 134° Southeast 482 555 25,000 1,620 Climbing Oakland Center
02:21PM 36.9383 -121.6381 134° Southeast 488 562 26,700 1,560 Climbing Oakland Center
02:22PM 36.8411 -121.5103 134° Southeast 503 579 28,200 1,800 Climbing Oakland Center
02:23PM 36.7381 -121.3728 133° Southeast 506 582 30,500 1,980 Climbing Oakland Center
02:24PM 36.6431 -121.2472 133° Southeast 501 577 32,300 1,740 Climbing Oakland Center
02:25PM 36.5475 -121.1233 134° Southeast 497 572 34,100 1,260 Climbing Oakland Center
02:26PM 36.4517 -121.0003 134° Southeast 495 570 35,000 420 Climbing Oakland Center
02:27PM 36.3556 -120.8758 134° Southeast 499 574 35,000  Level Oakland Center
02:28PM 36.2400 -120.7253 134° Southeast 502 578 35,000  Level Oakland Center
02:29PM 36.1414 -120.6022 135° Southeast 503 579 35,000  Level Oakland Center
02:30PM 36.0431 -120.4772 134° Southeast 506 582 35,000  Level Oakland Center
02:31PM 35.9458 -120.3533 134° Southeast 502 578 35,000  Level Oakland Center
02:32PM 35.8481 -120.2300 134° Southeast 500 575 35,000  Level Oakland Center
02:33PM 35.7494 -120.1081 135° Southeast 499 574 35,000  Level Oakland Center
02:34PM 35.6506 -119.9858 135° Southeast 499 574 35,000  Level Oakland Center
02:35PM 35.5403 -119.8861 144° Southeast 489 563 35,000  Level Oakland Center
02:36PM 35.4281 -119.7900 145° Southeast 487 560 35,000  Level Oakland Center
02:37PM 35.2942 -119.6761 145° Southeast 486 559 35,000  Level Oakland Center
02:38PM 35.1833 -119.5794 145° Southeast 486 559 35,000 -420 Level Oakland Center
02:39PM 35.0711 -119.4847 145° Southeast 488 562 34,200 -1,920 Descending Oakland Center
02:40PM 34.9597 -119.3903 145° Southeast 487 560 31,100 -3,120 Descending Oakland Center
02:41PM 34.8481 -119.2950 145° Southeast 489 563 27,800 -3,300 Descending Oakland Center
02:42PM 34.7367 -119.2006 145° Southeast 488 562 24,400 -3,180 Descending Oakland Center
02:44PM 34.5992 -119.0858 146° Southeast 474 545 20,900 -2,640 Descending Los Angeles Center
02:45PM 34.5189 -119.0183 145° Southeast 443 510 18,700 -2,280 Descending Los Angeles Center
02:46PM 34.4197 -118.9364 146° Southeast 429 494 16,200 -2,640 Descending Los Angeles Center
02:47PM 34.3011 -118.8625 153° Southeast 398 458 13,200 -1,980 Descending Los Angeles Center
02:48PM 34.2008 -118.8261 163° South 374 430 12,200 -1,320 Descending Los Angeles Center
02:49PM 34.0939 -118.7850 162° South 338 389 10,500 -1,080 Descending Los Angeles Center
02:50PM 34.0356 -118.7156 135° Southeast 300 345 10,000 -480 Descending Los Angeles Center
02:51PM 34.0247 -118.6133 97° East 307 353 9,600 -840 Descending Los Angeles Center
02:52PM 34.0136 -118.5072 97° East 297 342 8,300 -1,140 Descending Los Angeles Center
02:53PM 34.0125 -118.4242 91° East 287 330 7,300 -1,500 Descending Los Angeles Center
02:54PM 34.0211 -118.3308 84° East 281 323 5,200 -1,440 Descending Los Angeles Center
02:55PM 34.0275 -118.2611 84° East 272 313 4,400 -1,440 Descending Los Angeles Center
02:56PM 34.0358 -118.1617 84° East 219 252 2,300 -1,020 Descending Los Angeles Center
02:57PM 33.9875 -118.1394 159° South 217 250 2,300 -60 Level Los Angeles Center
02:58PM 33.9731 -118.2042 255° West 210 242 2,200 -120 Descending Los Angeles Center